sensor_id;sensor_type;location;lat;lon;timestamp;P1;durP1;ratioP1;P2;durP2;ratioP2
9848;SDS011;4963;51.444;6.528;2023-03-01T00:01:01;6.23;;;5.20;;
9848;SDS011;4963;51.444;6.528;2023-03-01T00:03:29;8.07;;;5.70;;
9848;SDS011;4963;51.444;6.528;2023-03-01T00:05:56;9.67;;;5.87;;
9848;SDS011;4963;51.444;6.528;2023-03-01T00:08:26;6.13;;;4.90;;
9848;SDS011;4963;51.444;6.528;2023-03-01T00:11:01;8.30;;;5.70;;
9848;SDS011;4963;51.444;6.528;2023-03-01T00:13:30;6.43;;;5.60;;
9848;SDS011;4963;51.444;6.528;2023-03-01T00:15:56;7.27;;;5.30;;
9848;SDS011;4963;51.444;6.528;2023-03-01T00:18:25;8.07;;;5.00;;
9848;SDS011;4963;51.444;6.528;2023-03-01T00:20:52;6.57;;;5.10;;
9848;SDS011;4963;51.444;6.528;2023-03-01T00:23:20;7.70;;;5.47;;
9848;SDS011;4963;51.444;6.528;2023-03-01T00:25:54;9.17;;;6.00;;
9848;SDS011;4963;51.444;6.528;2023-03-01T00:28:21;10.87;;;5.83;;
9848;SDS011;4963;51.444;6.528;2023-03-01T00:30:51;7.27;;;5.53;;
9848;SDS011;4963;51.444;6.528;2023-03-01T00:33:18;7.80;;;5.77;;
9848;SDS011;4963;51.444;6.528;2023-03-01T00:35:49;8.30;;;6.37;;
9848;SDS011;4963;51.444;6.528;2023-03-01T00:38:16;6.83;;;5.43;;
9848;SDS011;4963;51.444;6.528;2023-03-01T00:40:45;6.37;;;5.27;;
9848;SDS011;4963;51.444;6.528;2023-03-01T00:43:15;7.43;;;5.37;;
9848;SDS011;4963;51.444;6.528;2023-03-01T00:45:42;8.23;;;5.73;;
9848;SDS011;4963;51.444;6.528;2023-03-01T00:48:09;6.87;;;5.40;;
9848;SDS011;4963;51.444;6.528;2023-03-01T00:50:36;8.27;;;5.90;;
9848;SDS011;4963;51.444;6.528;2023-03-01T00:53:04;7.53;;;5.67;;
9848;SDS011;4963;51.444;6.528;2023-03-01T00:55:31;6.47;;;5.13;;
9848;SDS011;4963;51.444;6.528;2023-03-01T00:57:58;7.20;;;5.57;;
9848;SDS011;4963;51.444;6.528;2023-03-01T01:00:25;7.73;;;5.27;;
9848;SDS011;4963;51.444;6.528;2023-03-01T01:02:53;6.77;;;5.50;;
9848;SDS011;4963;51.444;6.528;2023-03-01T01:05:22;10.50;;;6.23;;
9848;SDS011;4963;51.444;6.528;2023-03-01T01:07:49;7.20;;;5.90;;
9848;SDS011;4963;51.444;6.528;2023-03-01T01:10:17;6.97;;;5.90;;
9848;SDS011;4963;51.444;6.528;2023-03-01T01:12:46;6.90;;;5.60;;
9848;SDS011;4963;51.444;6.528;2023-03-01T01:15:16;7.10;;;5.60;;
9848;SDS011;4963;51.444;6.528;2023-03-01T01:17:43;8.77;;;5.83;;
9848;SDS011;4963;51.444;6.528;2023-03-01T01:20:10;7.57;;;6.10;;
9848;SDS011;4963;51.444;6.528;2023-03-01T01:22:37;12.77;;;6.80;;
9848;SDS011;4963;51.444;6.528;2023-03-01T01:25:06;8.97;;;6.57;;
9848;SDS011;4963;51.444;6.528;2023-03-01T01:27:41;8.60;;;6.00;;
9848;SDS011;4963;51.444;6.528;2023-03-01T01:30:08;8.03;;;5.70;;
9848;SDS011;4963;51.444;6.528;2023-03-01T01:32:35;6.77;;;5.63;;
9848;SDS011;4963;51.444;6.528;2023-03-01T01:35:03;6.57;;;5.77;;
9848;SDS011;4963;51.444;6.528;2023-03-01T01:37:30;8.13;;;5.77;;
9848;SDS011;4963;51.444;6.528;2023-03-01T01:39:57;8.50;;;5.67;;
9848;SDS011;4963;51.444;6.528;2023-03-01T01:42:25;8.03;;;6.13;;
9848;SDS011;4963;51.444;6.528;2023-03-01T01:47:54;6.00;;;5.13;;
9848;SDS011;4963;51.444;6.528;2023-03-01T01:50:25;8.70;;;6.50;;
9848;SDS011;4963;51.444;6.528;2023-03-01T01:53:03;7.23;;;6.07;;
9848;SDS011;4963;51.444;6.528;2023-03-01T01:55:32;6.33;;;5.47;;
9848;SDS011;4963;51.444;6.528;2023-03-01T01:58:02;8.23;;;5.27;;
9848;SDS011;4963;51.444;6.528;2023-03-01T02:00:32;8.07;;;6.27;;
9848;SDS011;4963;51.444;6.528;2023-03-01T02:03:00;8.40;;;5.83;;
9848;SDS011;4963;51.444;6.528;2023-03-01T02:05:33;8.20;;;5.67;;
9848;SDS011;4963;51.444;6.528;2023-03-01T02:08:04;7.80;;;5.40;;
9848;SDS011;4963;51.444;6.528;2023-03-01T02:10:32;7.50;;;5.90;;
9848;SDS011;4963;51.444;6.528;2023-03-01T02:13:00;9.47;;;6.40;;
9848;SDS011;4963;51.444;6.528;2023-03-01T02:15:31;8.20;;;5.93;;
9848;SDS011;4963;51.444;6.528;2023-03-01T02:18:00;13.30;;;6.30;;
9848;SDS011;4963;51.444;6.528;2023-03-01T02:20:30;8.67;;;6.20;;
9848;SDS011;4963;51.444;6.528;2023-03-01T02:23:01;7.37;;;5.83;;
9848;SDS011;4963;51.444;6.528;2023-03-01T02:25:35;9.20;;;6.70;;
9848;SDS011;4963;51.444;6.528;2023-03-01T02:28:09;7.40;;;6.17;;
9848;SDS011;4963;51.444;6.528;2023-03-01T02:30:46;9.10;;;6.43;;
9848;SDS011;4963;51.444;6.528;2023-03-01T02:33:29;9.87;;;6.73;;
9848;SDS011;4963;51.444;6.528;2023-03-01T02:35:58;8.03;;;6.20;;
9848;SDS011;4963;51.444;6.528;2023-03-01T02:38:26;8.57;;;6.03;;
9848;SDS011;4963;51.444;6.528;2023-03-01T02:40:54;10.37;;;6.40;;
9848;SDS011;4963;51.444;6.528;2023-03-01T02:43:26;8.03;;;6.03;;
9848;SDS011;4963;51.444;6.528;2023-03-01T02:45:57;10.00;;;6.43;;
9848;SDS011;4963;51.444;6.528;2023-03-01T02:48:38;8.07;;;6.17;;
9848;SDS011;4963;51.444;6.528;2023-03-01T02:51:07;8.73;;;6.50;;
9848;SDS011;4963;51.444;6.528;2023-03-01T02:53:45;7.53;;;5.73;;
9848;SDS011;4963;51.444;6.528;2023-03-01T02:56:23;9.30;;;6.70;;
9848;SDS011;4963;51.444;6.528;2023-03-01T02:58:51;9.03;;;6.90;;
9848;SDS011;4963;51.444;6.528;2023-03-01T03:01:19;8.50;;;6.37;;
9848;SDS011;4963;51.444;6.528;2023-03-01T03:03:46;9.57;;;6.23;;
9848;SDS011;4963;51.444;6.528;2023-03-01T03:06:14;8.43;;;6.33;;
9848;SDS011;4963;51.444;6.528;2023-03-01T03:08:40;9.03;;;6.50;;
9848;SDS011;4963;51.444;6.528;2023-03-01T03:11:08;8.10;;;6.43;;
9848;SDS011;4963;51.444;6.528;2023-03-01T03:13:35;11.70;;;6.80;;
9848;SDS011;4963;51.444;6.528;2023-03-01T03:16:08;8.30;;;6.00;;
9848;SDS011;4963;51.444;6.528;2023-03-01T03:18:35;8.63;;;6.87;;
9848;SDS011;4963;51.444;6.528;2023-03-01T03:21:01;8.50;;;6.33;;
9848;SDS011;4963;51.444;6.528;2023-03-01T03:23:31;10.47;;;7.17;;
9848;SDS011;4963;51.444;6.528;2023-03-01T03:25:58;9.27;;;6.80;;
9848;SDS011;4963;51.444;6.528;2023-03-01T03:28:29;15.20;;;7.43;;
9848;SDS011;4963;51.444;6.528;2023-03-01T03:30:56;8.63;;;6.27;;
9848;SDS011;4963;51.444;6.528;2023-03-01T03:33:26;8.93;;;7.03;;
9848;SDS011;4963;51.444;6.528;2023-03-01T03:35:53;8.83;;;6.57;;
9848;SDS011;4963;51.444;6.528;2023-03-01T03:38:20;7.53;;;5.97;;
9848;SDS011;4963;51.444;6.528;2023-03-01T03:40:47;9.70;;;6.53;;
9848;SDS011;4963;51.444;6.528;2023-03-01T03:43:16;8.70;;;6.87;;
9848;SDS011;4963;51.444;6.528;2023-03-01T03:45:44;9.47;;;6.77;;
9848;SDS011;4963;51.444;6.528;2023-03-01T03:48:12;9.60;;;6.73;;
9848;SDS011;4963;51.444;6.528;2023-03-01T03:50:40;8.00;;;6.43;;
9848;SDS011;4963;51.444;6.528;2023-03-01T03:53:08;9.03;;;6.73;;
9848;SDS011;4963;51.444;6.528;2023-03-01T03:55:36;8.37;;;6.83;;
9848;SDS011;4963;51.444;6.528;2023-03-01T03:58:04;8.63;;;6.90;;
9848;SDS011;4963;51.444;6.528;2023-03-01T04:00:33;7.70;;;6.23;;
9848;SDS011;4963;51.444;6.528;2023-03-01T04:03:02;10.00;;;6.57;;
9848;SDS011;4963;51.444;6.528;2023-03-01T04:05:32;9.17;;;6.47;;
9848;SDS011;4963;51.444;6.528;2023-03-01T04:08:01;8.17;;;6.67;;
9848;SDS011;4963;51.444;6.528;2023-03-01T04:10:32;10.70;;;7.13;;
9848;SDS011;4963;51.444;6.528;2023-03-01T04:13:04;14.37;;;7.33;;
9848;SDS011;4963;51.444;6.528;2023-03-01T04:15:32;8.20;;;6.20;;
9848;SDS011;4963;51.444;6.528;2023-03-01T04:18:03;8.10;;;6.20;;
9848;SDS011;4963;51.444;6.528;2023-03-01T04:20:32;9.57;;;6.90;;
9848;SDS011;4963;51.444;6.528;2023-03-01T04:23:03;8.57;;;6.87;;
9848;SDS011;4963;51.444;6.528;2023-03-01T04:25:37;10.90;;;7.60;;
9848;SDS011;4963;51.444;6.528;2023-03-01T04:28:09;9.40;;;6.50;;
9848;SDS011;4963;51.444;6.528;2023-03-01T04:30:39;11.77;;;6.90;;
9848;SDS011;4963;51.444;6.528;2023-03-01T04:33:09;8.80;;;7.00;;
9848;SDS011;4963;51.444;6.528;2023-03-01T04:35:37;8.27;;;6.13;;
9848;SDS011;4963;51.444;6.528;2023-03-01T04:38:06;10.77;;;6.63;;
9848;SDS011;4963;51.444;6.528;2023-03-01T04:40:37;9.70;;;6.67;;
9848;SDS011;4963;51.444;6.528;2023-03-01T04:43:08;9.03;;;6.93;;
9848;SDS011;4963;51.444;6.528;2023-03-01T04:45:36;9.83;;;6.90;;
9848;SDS011;4963;51.444;6.528;2023-03-01T04:48:04;11.13;;;6.70;;
9848;SDS011;4963;51.444;6.528;2023-03-01T04:50:31;10.33;;;7.20;;
9848;SDS011;4963;51.444;6.528;2023-03-01T04:52:58;9.47;;;7.20;;
9848;SDS011;4963;51.444;6.528;2023-03-01T04:55:27;10.07;;;7.33;;
9848;SDS011;4963;51.444;6.528;2023-03-01T04:57:54;10.00;;;6.90;;
9848;SDS011;4963;51.444;6.528;2023-03-01T05:00:22;11.47;;;7.37;;
9848;SDS011;4963;51.444;6.528;2023-03-01T05:02:50;8.70;;;6.80;;
9848;SDS011;4963;51.444;6.528;2023-03-01T05:05:23;7.83;;;6.13;;
9848;SDS011;4963;51.444;6.528;2023-03-01T05:07:53;9.93;;;7.40;;
9848;SDS011;4963;51.444;6.528;2023-03-01T05:10:21;8.77;;;6.80;;
9848;SDS011;4963;51.444;6.528;2023-03-01T05:12:50;10.47;;;6.90;;
9848;SDS011;4963;51.444;6.528;2023-03-01T05:15:20;10.07;;;6.63;;
9848;SDS011;4963;51.444;6.528;2023-03-01T05:17:50;12.53;;;7.30;;
9848;SDS011;4963;51.444;6.528;2023-03-01T05:20:20;8.80;;;6.77;;
9848;SDS011;4963;51.444;6.528;2023-03-01T05:22:49;8.70;;;7.10;;
9848;SDS011;4963;51.444;6.528;2023-03-01T05:25:16;10.13;;;7.03;;
9848;SDS011;4963;51.444;6.528;2023-03-01T05:27:43;9.23;;;6.77;;
9848;SDS011;4963;51.444;6.528;2023-03-01T05:30:12;10.10;;;6.87;;
9848;SDS011;4963;51.444;6.528;2023-03-01T05:32:40;9.03;;;7.00;;
9848;SDS011;4963;51.444;6.528;2023-03-01T05:35:09;8.23;;;6.37;;
9848;SDS011;4963;51.444;6.528;2023-03-01T05:37:41;9.73;;;7.23;;
9848;SDS011;4963;51.444;6.528;2023-03-01T05:40:09;10.63;;;7.57;;
9848;SDS011;4963;51.444;6.528;2023-03-01T05:42:41;8.50;;;6.60;;
9848;SDS011;4963;51.444;6.528;2023-03-01T05:45:09;10.87;;;7.30;;
9848;SDS011;4963;51.444;6.528;2023-03-01T05:47:38;9.50;;;7.27;;
9848;SDS011;4963;51.444;6.528;2023-03-01T05:50:09;9.27;;;6.80;;
9848;SDS011;4963;51.444;6.528;2023-03-01T05:52:43;9.00;;;6.60;;
9848;SDS011;4963;51.444;6.528;2023-03-01T05:55:10;9.50;;;7.13;;
9848;SDS011;4963;51.444;6.528;2023-03-01T05:57:40;11.77;;;7.10;;
9848;SDS011;4963;51.444;6.528;2023-03-01T06:00:08;9.17;;;6.70;;
9848;SDS011;4963;51.444;6.528;2023-03-01T06:02:36;8.90;;;7.10;;
9848;SDS011;4963;51.444;6.528;2023-03-01T06:05:05;11.10;;;7.27;;
9848;SDS011;4963;51.444;6.528;2023-03-01T06:07:36;12.13;;;7.40;;
9848;SDS011;4963;51.444;6.528;2023-03-01T06:10:06;9.67;;;7.30;;
9848;SDS011;4963;51.444;6.528;2023-03-01T06:12:35;8.83;;;6.87;;
9848;SDS011;4963;51.444;6.528;2023-03-01T06:15:04;9.17;;;7.03;;
9848;SDS011;4963;51.444;6.528;2023-03-01T06:17:42;10.93;;;7.40;;
9848;SDS011;4963;51.444;6.528;2023-03-01T06:20:13;11.13;;;7.43;;
9848;SDS011;4963;51.444;6.528;2023-03-01T06:22:41;8.63;;;6.70;;
9848;SDS011;4963;51.444;6.528;2023-03-01T06:25:09;9.37;;;7.53;;
9848;SDS011;4963;51.444;6.528;2023-03-01T06:27:37;10.00;;;7.13;;
9848;SDS011;4963;51.444;6.528;2023-03-01T06:30:05;12.00;;;8.40;;
9848;SDS011;4963;51.444;6.528;2023-03-01T06:32:33;13.40;;;8.00;;
9848;SDS011;4963;51.444;6.528;2023-03-01T06:35:00;11.13;;;6.93;;
9848;SDS011;4963;51.444;6.528;2023-03-01T06:37:28;9.10;;;7.10;;
9848;SDS011;4963;51.444;6.528;2023-03-01T06:39:55;12.30;;;7.73;;
9848;SDS011;4963;51.444;6.528;2023-03-01T06:42:21;10.30;;;7.43;;
9848;SDS011;4963;51.444;6.528;2023-03-01T06:44:48;11.17;;;7.47;;
9848;SDS011;4963;51.444;6.528;2023-03-01T06:47:15;11.17;;;7.87;;
9848;SDS011;4963;51.444;6.528;2023-03-01T06:49:42;10.20;;;6.93;;
9848;SDS011;4963;51.444;6.528;2023-03-01T06:52:09;13.23;;;8.23;;
9848;SDS011;4963;51.444;6.528;2023-03-01T06:54:37;9.87;;;6.97;;
9848;SDS011;4963;51.444;6.528;2023-03-01T06:57:04;8.67;;;7.03;;
9848;SDS011;4963;51.444;6.528;2023-03-01T06:59:31;12.63;;;8.10;;
9848;SDS011;4963;51.444;6.528;2023-03-01T07:01:58;11.03;;;7.67;;
9848;SDS011;4963;51.444;6.528;2023-03-01T07:04:25;11.30;;;8.00;;
9848;SDS011;4963;51.444;6.528;2023-03-01T07:06:53;9.37;;;7.47;;
9848;SDS011;4963;51.444;6.528;2023-03-01T07:09:20;10.47;;;7.70;;
9848;SDS011;4963;51.444;6.528;2023-03-01T07:11:49;10.33;;;7.43;;
9848;SDS011;4963;51.444;6.528;2023-03-01T07:14:16;9.70;;;7.47;;
9848;SDS011;4963;51.444;6.528;2023-03-01T07:16:44;14.17;;;7.93;;
9848;SDS011;4963;51.444;6.528;2023-03-01T07:19:11;16.63;;;8.10;;
9848;SDS011;4963;51.444;6.528;2023-03-01T07:21:44;13.27;;;7.53;;
9848;SDS011;4963;51.444;6.528;2023-03-01T07:24:11;12.07;;;7.70;;
9848;SDS011;4963;51.444;6.528;2023-03-01T07:26:39;13.47;;;8.33;;
9848;SDS011;4963;51.444;6.528;2023-03-01T07:29:07;13.97;;;8.10;;
9848;SDS011;4963;51.444;6.528;2023-03-01T07:31:35;9.17;;;7.37;;
9848;SDS011;4963;51.444;6.528;2023-03-01T07:34:02;10.83;;;7.70;;
9848;SDS011;4963;51.444;6.528;2023-03-01T07:36:29;11.30;;;7.63;;
9848;SDS011;4963;51.444;6.528;2023-03-01T07:38:59;16.53;;;8.47;;
9848;SDS011;4963;51.444;6.528;2023-03-01T07:41:27;10.50;;;7.20;;
9848;SDS011;4963;51.444;6.528;2023-03-01T07:43:54;12.93;;;8.30;;
9848;SDS011;4963;51.444;6.528;2023-03-01T07:46:24;14.67;;;8.20;;
9848;SDS011;4963;51.444;6.528;2023-03-01T07:48:51;12.87;;;8.07;;
9848;SDS011;4963;51.444;6.528;2023-03-01T07:51:18;11.77;;;8.63;;
9848;SDS011;4963;51.444;6.528;2023-03-01T07:53:48;12.60;;;8.20;;
9848;SDS011;4963;51.444;6.528;2023-03-01T07:56:15;10.67;;;7.63;;
9848;SDS011;4963;51.444;6.528;2023-03-01T07:58:47;11.87;;;8.27;;
9848;SDS011;4963;51.444;6.528;2023-03-01T08:01:18;11.10;;;7.80;;
9848;SDS011;4963;51.444;6.528;2023-03-01T08:03:48;11.17;;;8.43;;
9848;SDS011;4963;51.444;6.528;2023-03-01T08:06:22;15.47;;;8.83;;
9848;SDS011;4963;51.444;6.528;2023-03-01T08:08:49;11.73;;;9.03;;
9848;SDS011;4963;51.444;6.528;2023-03-01T08:11:19;15.20;;;9.27;;
9848;SDS011;4963;51.444;6.528;2023-03-01T08:13:49;11.47;;;8.67;;
9848;SDS011;4963;51.444;6.528;2023-03-01T08:16:24;16.33;;;9.57;;
9848;SDS011;4963;51.444;6.528;2023-03-01T08:19:02;15.93;;;9.60;;
9848;SDS011;4963;51.444;6.528;2023-03-01T08:21:51;15.33;;;9.30;;
9848;SDS011;4963;51.444;6.528;2023-03-01T08:24:23;17.63;;;9.67;;
9848;SDS011;4963;51.444;6.528;2023-03-01T08:27:09;13.30;;;9.40;;
9848;SDS011;4963;51.444;6.528;2023-03-01T08:29:42;17.50;;;9.13;;
9848;SDS011;4963;51.444;6.528;2023-03-01T08:32:14;15.40;;;9.90;;
9848;SDS011;4963;51.444;6.528;2023-03-01T08:34:51;14.97;;;9.43;;
9848;SDS011;4963;51.444;6.528;2023-03-01T08:41:05;11.30;;;8.30;;
9848;SDS011;4963;51.444;6.528;2023-03-01T08:43:46;13.30;;;8.83;;
9848;SDS011;4963;51.444;6.528;2023-03-01T08:46:20;14.00;;;8.27;;
9848;SDS011;4963;51.444;6.528;2023-03-01T08:48:54;15.97;;;8.53;;
9848;SDS011;4963;51.444;6.528;2023-03-01T08:51:40;14.40;;;9.13;;
9848;SDS011;4963;51.444;6.528;2023-03-01T08:54:10;11.50;;;8.30;;
9848;SDS011;4963;51.444;6.528;2023-03-01T08:56:53;11.90;;;9.00;;
9848;SDS011;4963;51.444;6.528;2023-03-01T08:59:28;13.67;;;8.33;;
9848;SDS011;4963;51.444;6.528;2023-03-01T09:02:02;13.07;;;8.67;;
9848;SDS011;4963;51.444;6.528;2023-03-01T09:04:36;13.93;;;8.43;;
9848;SDS011;4963;51.444;6.528;2023-03-01T09:07:04;13.33;;;8.33;;
9848;SDS011;4963;51.444;6.528;2023-03-01T09:09:31;11.13;;;8.10;;
9848;SDS011;4963;51.444;6.528;2023-03-01T09:12:06;13.73;;;8.80;;
9848;SDS011;4963;51.444;6.528;2023-03-01T09:14:36;15.67;;;9.17;;
9848;SDS011;4963;51.444;6.528;2023-03-01T09:17:03;14.93;;;8.80;;
9848;SDS011;4963;51.444;6.528;2023-03-01T09:19:30;11.67;;;8.40;;
9848;SDS011;4963;51.444;6.528;2023-03-01T09:21:57;14.03;;;8.60;;
9848;SDS011;4963;51.444;6.528;2023-03-01T09:24:26;14.03;;;9.23;;
9848;SDS011;4963;51.444;6.528;2023-03-01T09:27:26;12.40;;;8.20;;
9848;SDS011;4963;51.444;6.528;2023-03-01T09:30:13;13.07;;;9.00;;
9848;SDS011;4963;51.444;6.528;2023-03-01T09:32:42;10.90;;;9.03;;
9848;SDS011;4963;51.444;6.528;2023-03-01T09:35:17;14.03;;;8.90;;
9848;SDS011;4963;51.444;6.528;2023-03-01T09:37:53;9.87;;;7.70;;
9848;SDS011;4963;51.444;6.528;2023-03-01T09:40:36;14.20;;;8.57;;
9848;SDS011;4963;51.444;6.528;2023-03-01T09:43:29;14.17;;;8.83;;
9848;SDS011;4963;51.444;6.528;2023-03-01T09:46:10;12.23;;;8.13;;
9848;SDS011;4963;51.444;6.528;2023-03-01T09:48:46;12.83;;;9.30;;
9848;SDS011;4963;51.444;6.528;2023-03-01T09:51:37;13.27;;;8.57;;
9848;SDS011;4963;51.444;6.528;2023-03-01T09:54:14;14.37;;;8.53;;
9848;SDS011;4963;51.444;6.528;2023-03-01T09:56:59;11.93;;;8.30;;
9848;SDS011;4963;51.444;6.528;2023-03-01T10:03:13;11.33;;;8.10;;
9848;SDS011;4963;51.444;6.528;2023-03-01T10:05:56;12.00;;;9.07;;
9848;SDS011;4963;51.444;6.528;2023-03-01T10:08:29;12.87;;;8.53;;
9848;SDS011;4963;51.444;6.528;2023-03-01T10:11:01;17.07;;;7.53;;
9848;SDS011;4963;51.444;6.528;2023-03-01T10:13:33;10.03;;;7.57;;
9848;SDS011;4963;51.444;6.528;2023-03-01T10:16:10;13.03;;;7.73;;
9848;SDS011;4963;51.444;6.528;2023-03-01T10:18:41;16.10;;;8.40;;
9848;SDS011;4963;51.444;6.528;2023-03-01T10:21:13;10.97;;;8.03;;
9848;SDS011;4963;51.444;6.528;2023-03-01T10:23:42;10.00;;;7.33;;
9848;SDS011;4963;51.444;6.528;2023-03-01T10:26:17;12.17;;;8.27;;
9848;SDS011;4963;51.444;6.528;2023-03-01T10:29:02;12.10;;;7.77;;
9848;SDS011;4963;51.444;6.528;2023-03-01T10:31:36;10.10;;;6.80;;
9848;SDS011;4963;51.444;6.528;2023-03-01T10:34:13;10.67;;;7.07;;
9848;SDS011;4963;51.444;6.528;2023-03-01T10:36:41;14.90;;;7.53;;
9848;SDS011;4963;51.444;6.528;2023-03-01T10:39:13;11.97;;;7.43;;
9848;SDS011;4963;51.444;6.528;2023-03-01T10:41:54;9.93;;;7.17;;
9848;SDS011;4963;51.444;6.528;2023-03-01T10:44:38;11.20;;;7.73;;
9848;SDS011;4963;51.444;6.528;2023-03-01T10:47:14;12.70;;;7.80;;
9848;SDS011;4963;51.444;6.528;2023-03-01T10:49:51;9.43;;;6.87;;
9848;SDS011;4963;51.444;6.528;2023-03-01T10:52:30;12.30;;;7.90;;
9848;SDS011;4963;51.444;6.528;2023-03-01T10:54:59;10.07;;;7.33;;
9848;SDS011;4963;51.444;6.528;2023-03-01T10:57:33;11.33;;;7.27;;
9848;SDS011;4963;51.444;6.528;2023-03-01T11:02:51;12.13;;;7.80;;
9848;SDS011;4963;51.444;6.528;2023-03-01T11:05:29;12.13;;;7.93;;
9848;SDS011;4963;51.444;6.528;2023-03-01T11:07:59;8.20;;;6.53;;
9848;SDS011;4963;51.444;6.528;2023-03-01T11:10:28;13.00;;;7.40;;
9848;SDS011;4963;51.444;6.528;2023-03-01T11:13:06;10.73;;;6.83;;
9848;SDS011;4963;51.444;6.528;2023-03-01T11:15:36;11.93;;;6.93;;
9848;SDS011;4963;51.444;6.528;2023-03-01T11:18:02;11.63;;;7.27;;
9848;SDS011;4963;51.444;6.528;2023-03-01T11:20:30;9.13;;;6.47;;
9848;SDS011;4963;51.444;6.528;2023-03-01T11:23:01;12.47;;;6.50;;
9848;SDS011;4963;51.444;6.528;2023-03-01T11:25:32;9.60;;;6.60;;
9848;SDS011;4963;51.444;6.528;2023-03-01T11:28:03;11.00;;;6.40;;
9848;SDS011;4963;51.444;6.528;2023-03-01T11:30:33;10.70;;;6.50;;
9848;SDS011;4963;51.444;6.528;2023-03-01T11:33:08;10.13;;;6.40;;
9848;SDS011;4963;51.444;6.528;2023-03-01T11:35:44;8.50;;;6.07;;
9848;SDS011;4963;51.444;6.528;2023-03-01T11:38:17;10.43;;;6.47;;
9848;SDS011;4963;51.444;6.528;2023-03-01T11:40:47;11.50;;;6.07;;
9848;SDS011;4963;51.444;6.528;2023-03-01T11:43:20;9.37;;;6.63;;
9848;SDS011;4963;51.444;6.528;2023-03-01T11:49:22;10.13;;;6.27;;
9848;SDS011;4963;51.444;6.528;2023-03-01T11:52:09;9.43;;;6.57;;
9848;SDS011;4963;51.444;6.528;2023-03-01T11:54:49;10.73;;;7.07;;
9848;SDS011;4963;51.444;6.528;2023-03-01T11:57:33;11.33;;;6.90;;
9848;SDS011;4963;51.444;6.528;2023-03-01T12:00:18;8.93;;;6.43;;
9848;SDS011;4963;51.444;6.528;2023-03-01T12:03:16;11.27;;;6.87;;
9848;SDS011;4963;51.444;6.528;2023-03-01T12:05:59;14.00;;;7.53;;
9848;SDS011;4963;51.444;6.528;2023-03-01T12:08:56;13.83;;;6.93;;
9848;SDS011;4963;51.444;6.528;2023-03-01T12:11:35;12.83;;;6.77;;
9848;SDS011;4963;51.444;6.528;2023-03-01T12:17:19;11.60;;;6.93;;
9848;SDS011;4963;51.444;6.528;2023-03-01T12:20:14;8.77;;;6.17;;
9848;SDS011;4963;51.444;6.528;2023-03-01T12:22:52;12.90;;;6.80;;
9848;SDS011;4963;51.444;6.528;2023-03-01T12:25:48;9.03;;;6.00;;
9848;SDS011;4963;51.444;6.528;2023-03-01T12:28:35;11.33;;;6.67;;
9848;SDS011;4963;51.444;6.528;2023-03-01T12:34:22;9.63;;;6.40;;
9848;SDS011;4963;51.444;6.528;2023-03-01T12:37:13;7.07;;;5.97;;
9848;SDS011;4963;51.444;6.528;2023-03-01T12:40:02;7.37;;;5.60;;
9848;SDS011;4963;51.444;6.528;2023-03-01T12:42:45;10.60;;;6.33;;
9848;SDS011;4963;51.444;6.528;2023-03-01T12:45:34;10.97;;;6.30;;
9848;SDS011;4963;51.444;6.528;2023-03-01T12:48:17;7.73;;;6.10;;
9848;SDS011;4963;51.444;6.528;2023-03-01T12:50:57;12.73;;;6.17;;
9848;SDS011;4963;51.444;6.528;2023-03-01T12:53:30;12.00;;;5.93;;
9848;SDS011;4963;51.444;6.528;2023-03-01T12:56:01;7.00;;;6.03;;
9848;SDS011;4963;51.444;6.528;2023-03-01T12:58:32;8.60;;;6.23;;
9848;SDS011;4963;51.444;6.528;2023-03-01T13:01:03;9.57;;;6.67;;
9848;SDS011;4963;51.444;6.528;2023-03-01T13:03:44;8.73;;;6.37;;
9848;SDS011;4963;51.444;6.528;2023-03-01T13:06:25;9.20;;;6.50;;
9848;SDS011;4963;51.444;6.528;2023-03-01T13:09:04;7.93;;;5.97;;
9848;SDS011;4963;51.444;6.528;2023-03-01T13:11:40;8.37;;;5.77;;
9848;SDS011;4963;51.444;6.528;2023-03-01T13:14:34;8.53;;;5.77;;
9848;SDS011;4963;51.444;6.528;2023-03-01T13:17:04;8.73;;;5.83;;
9848;SDS011;4963;51.444;6.528;2023-03-01T13:19:55;10.40;;;5.77;;
9848;SDS011;4963;51.444;6.528;2023-03-01T13:22:27;11.67;;;5.73;;
9848;SDS011;4963;51.444;6.528;2023-03-01T13:25:11;7.90;;;5.63;;
9848;SDS011;4963;51.444;6.528;2023-03-01T13:27:46;9.40;;;6.23;;
9848;SDS011;4963;51.444;6.528;2023-03-01T13:33:37;10.07;;;6.77;;
9848;SDS011;4963;51.444;6.528;2023-03-01T13:36:07;12.53;;;7.30;;
9848;SDS011;4963;51.444;6.528;2023-03-01T13:38:41;8.67;;;6.00;;
9848;SDS011;4963;51.444;6.528;2023-03-01T13:41:14;8.13;;;5.90;;
9848;SDS011;4963;51.444;6.528;2023-03-01T13:43:42;9.10;;;6.47;;
9848;SDS011;4963;51.444;6.528;2023-03-01T13:46:20;10.73;;;6.43;;
9848;SDS011;4963;51.444;6.528;2023-03-01T13:48:49;7.60;;;6.03;;
9848;SDS011;4963;51.444;6.528;2023-03-01T13:51:23;9.03;;;6.53;;
9848;SDS011;4963;51.444;6.528;2023-03-01T13:53:53;8.30;;;5.90;;
9848;SDS011;4963;51.444;6.528;2023-03-01T13:56:24;10.93;;;6.67;;
9848;SDS011;4963;51.444;6.528;2023-03-01T13:58:53;10.43;;;6.07;;
9848;SDS011;4963;51.444;6.528;2023-03-01T14:01:27;10.50;;;6.77;;
9848;SDS011;4963;51.444;6.528;2023-03-01T14:03:55;8.80;;;6.67;;
9848;SDS011;4963;51.444;6.528;2023-03-01T14:06:23;8.83;;;6.33;;
9848;SDS011;4963;51.444;6.528;2023-03-01T14:08:52;8.83;;;6.27;;
9848;SDS011;4963;51.444;6.528;2023-03-01T14:14:43;8.93;;;6.40;;
9848;SDS011;4963;51.444;6.528;2023-03-01T14:17:30;11.70;;;7.03;;
9848;SDS011;4963;51.444;6.528;2023-03-01T14:20:16;8.47;;;6.13;;
9848;SDS011;4963;51.444;6.528;2023-03-01T14:22:45;6.63;;;5.50;;
9848;SDS011;4963;51.444;6.528;2023-03-01T14:25:23;11.43;;;6.30;;
9848;SDS011;4963;51.444;6.528;2023-03-01T14:27:54;13.30;;;6.93;;
9848;SDS011;4963;51.444;6.528;2023-03-01T14:30:25;9.07;;;6.07;;
9848;SDS011;4963;51.444;6.528;2023-03-01T14:32:56;10.30;;;5.80;;
9848;SDS011;4963;51.444;6.528;2023-03-01T14:35:25;10.63;;;6.43;;
9848;SDS011;4963;51.444;6.528;2023-03-01T14:37:53;12.00;;;7.03;;
9848;SDS011;4963;51.444;6.528;2023-03-01T14:40:24;10.97;;;6.40;;
9848;SDS011;4963;51.444;6.528;2023-03-01T14:42:53;9.43;;;6.97;;
9848;SDS011;4963;51.444;6.528;2023-03-01T14:45:21;7.40;;;6.03;;
9848;SDS011;4963;51.444;6.528;2023-03-01T14:47:52;10.03;;;6.73;;
9848;SDS011;4963;51.444;6.528;2023-03-01T14:50:24;9.27;;;5.80;;
9848;SDS011;4963;51.444;6.528;2023-03-01T14:52:54;10.47;;;6.30;;
9848;SDS011;4963;51.444;6.528;2023-03-01T14:55:25;8.93;;;5.90;;
9848;SDS011;4963;51.444;6.528;2023-03-01T14:57:56;10.33;;;7.13;;
9848;SDS011;4963;51.444;6.528;2023-03-01T15:00:25;9.00;;;6.53;;
9848;SDS011;4963;51.444;6.528;2023-03-01T15:03:00;9.60;;;6.07;;
9848;SDS011;4963;51.444;6.528;2023-03-01T15:05:34;9.43;;;6.37;;
9848;SDS011;4963;51.444;6.528;2023-03-01T15:08:02;15.53;;;6.50;;
9848;SDS011;4963;51.444;6.528;2023-03-01T15:10:31;12.70;;;6.93;;
9848;SDS011;4963;51.444;6.528;2023-03-01T15:13:09;12.30;;;7.00;;
9848;SDS011;4963;51.444;6.528;2023-03-01T15:15:41;11.77;;;7.47;;
9848;SDS011;4963;51.444;6.528;2023-03-01T15:18:13;11.87;;;7.50;;
9848;SDS011;4963;51.444;6.528;2023-03-01T15:20:42;10.83;;;7.47;;
9848;SDS011;4963;51.444;6.528;2023-03-01T15:23:18;11.30;;;7.93;;
9848;SDS011;4963;51.444;6.528;2023-03-01T15:25:50;8.40;;;6.70;;
9848;SDS011;4963;51.444;6.528;2023-03-01T15:28:22;13.13;;;7.27;;
9848;SDS011;4963;51.444;6.528;2023-03-01T15:30:56;11.67;;;7.20;;
9848;SDS011;4963;51.444;6.528;2023-03-01T15:33:28;11.70;;;7.70;;
9848;SDS011;4963;51.444;6.528;2023-03-01T15:35:57;10.57;;;7.17;;
9848;SDS011;4963;51.444;6.528;2023-03-01T15:38:34;12.80;;;7.60;;
9848;SDS011;4963;51.444;6.528;2023-03-01T15:41:22;9.83;;;6.50;;
9848;SDS011;4963;51.444;6.528;2023-03-01T15:43:50;9.73;;;6.57;;
9848;SDS011;4963;51.444;6.528;2023-03-01T15:46:24;10.40;;;7.23;;
9848;SDS011;4963;51.444;6.528;2023-03-01T15:48:55;11.33;;;7.37;;
9848;SDS011;4963;51.444;6.528;2023-03-01T15:51:28;10.40;;;7.50;;
9848;SDS011;4963;51.444;6.528;2023-03-01T15:53:58;12.43;;;8.83;;
9848;SDS011;4963;51.444;6.528;2023-03-01T15:56:27;11.80;;;7.83;;
9848;SDS011;4963;51.444;6.528;2023-03-01T15:58:57;11.53;;;7.40;;
9848;SDS011;4963;51.444;6.528;2023-03-01T16:01:26;10.40;;;6.93;;
9848;SDS011;4963;51.444;6.528;2023-03-01T16:03:53;13.10;;;6.80;;
9848;SDS011;4963;51.444;6.528;2023-03-01T16:06:21;11.37;;;7.10;;